Time;durP1;ratioP1;P1;durP2;ratioP2;P2;SDS_P1;SDS_P2;PMS_P1;PMS_P2;Temp;Humidity;BMP_temperature;BMP_pressure;BME280_temperature;BME280_humidity;BME280_pressure;Samples;Min_cycle;Max_cycle;Signal;HPM_P1;HPM_P2
2024/03/12 00:04:38;;;;;;;6.22;4.55;;;;;;;8.77;78.16;99710.41;10167805;29;20099;-82
2024/03/12 00:09:41;;;;;;;7.75;4.80;;;;;;;8.75;78.64;99715.06;10174027;29;20078;-81
2024/03/12 00:14:44;;;;;;;6.35;4.75;;;;;;;8.72;78.87;99720.69;10162831;29;21333;-82
2024/03/12 00:19:52;;;;;;;5.93;4.32;;;;;;;8.75;78.38;99724.88;10172347;29;20047;-80
2024/03/12 00:24:55;;;;;;;7.13;3.95;;;;;;;8.75;78.20;99724.88;10172641;29;20048;-82
2024/03/12 00:29:58;;;;;;;6.40;4.70;;;;;;;8.72;78.56;99736.75;10157566;29;20496;-81
2024/03/12 00:35:03;;;;;;;9.20;4.30;;;;;;;8.80;78.10;99739.63;10186642;29;20056;-82
2024/03/12 00:40:11;;;;;;;6.28;5.10;;;;;;;8.67;79.43;99744.31;10169684;29;20062;-81
2024/03/12 00:45:19;;;;;;;7.28;5.38;;;;;;;8.57;79.93;99741.53;10161319;28;20044;-82
2024/03/12 00:50:24;;;;;;;7.15;5.63;;;;;;;8.78;79.06;99740.72;10167815;29;20722;-83
2024/03/12 00:55:28;;;;;;;6.97;5.63;;;;;;;8.78;79.29;99748.75;10170433;29;20063;-81
2024/03/12 01:00:33;;;;;;;8.10;5.80;;;;;;;8.80;79.29;99758.38;10168652;29;20526;-82
2024/03/12 01:05:38;;;;;;;6.50;5.78;;;;;;;8.75;79.34;99760.59;10170327;29;20051;-83
2024/03/12 01:10:42;;;;;;;7.13;5.53;;;;;;;8.69;79.82;99768.25;10170764;29;20427;-81
2024/03/12 01:15:48;;;;;;;9.98;6.85;;;;;;;8.65;80.02;99764.16;10170940;29;20039;-81
2024/03/12 01:20:52;;;;;;;8.48;6.40;;;;;;;8.64;80.08;99765.97;10168909;29;20054;-82
2024/03/12 01:25:56;;;;;;;9.18;7.20;;;;;;;8.69;79.71;99762.91;10171526;29;20423;-82
2024/03/12 01:31:00;;;;;;;9.45;7.13;;;;;;;8.59;80.24;99768.19;10170151;29;20071;-82
2024/03/12 01:36:18;;;;;;;7.22;6.20;;;;;;;8.51;80.83;99773.31;10169565;29;20051;-81
2024/03/12 01:41:21;;;;;;;8.40;6.70;;;;;;;8.68;80.01;99769.25;10162607;29;20075;-81
2024/03/12 01:46:24;;;;;;;9.10;6.53;;;;;;;8.69;79.90;99777.13;10171331;28;20059;-82
2024/03/12 01:51:30;;;;;;;8.77;6.88;;;;;;;8.68;80.16;99771.91;10163628;29;20044;-81
2024/03/12 01:56:33;;;;;;;8.35;7.20;;;;;;;8.68;80.05;99769.25;10168900;29;20086;-82
2024/03/12 02:01:36;;;;;;;10.55;7.30;;;;;;;8.71;79.88;99774.34;10165602;29;20074;-83
2024/03/12 02:06:42;;;;;;;10.73;6.72;;;;;;;8.76;79.65;99778.34;10165544;29;20044;-82
2024/03/12 02:11:45;;;;;;;8.77;6.03;;;;;;;8.77;79.66;99780.03;10164601;29;20059;-81
2024/03/12 02:16:50;;;;;;;9.40;6.32;;;;;;;8.78;79.48;99786.25;10178484;29;20039;-82
2024/03/12 02:21:55;;;;;;;7.63;6.10;;;;;;;8.80;79.67;99786.97;10179046;29;20577;-82
2024/03/12 02:26:59;;;;;;;7.70;6.40;;;;;;;8.77;79.72;99782.69;10174289;29;20051;-83
2024/03/12 02:32:02;;;;;;;9.30;5.95;;;;;;;8.80;79.74;99782.47;10188710;29;20044;-82
2024/03/12 02:37:05;;;;;;;9.48;6.05;;;;;;;8.80;79.72;99787.84;10177553;29;20055;-81
2024/03/12 02:42:11;;;;;;;8.50;6.15;;;;;;;8.82;79.68;99795.72;10171045;29;20071;-82
2024/03/12 02:47:14;;;;;;;8.57;6.28;;;;;;;8.81;79.69;99802.06;10174567;29;21275;-81
2024/03/12 02:52:17;;;;;;;7.55;5.95;;;;;;;8.79;80.04;99806.69;10173806;29;20067;-82
2024/03/12 02:57:22;;;;;;;9.00;6.15;;;;;;;8.77;80.23;99806.81;10171039;29;20055;-80
2024/03/12 03:02:26;;;;;;;8.32;6.28;;;;;;;8.82;80.01;99812.63;10166867;29;20048;-82
2024/03/12 03:07:29;;;;;;;8.88;6.90;;;;;;;8.82;79.83;99809.94;10168637;29;20048;-82
2024/03/12 03:12:33;;;;;;;11.80;8.18;;;;;;;8.67;80.84;99821.09;10175185;29;20043;-81
2024/03/12 03:17:36;;;;;;;12.15;9.05;;;;;;;8.69;81.10;99819.97;10174126;29;20047;-81
2024/03/12 03:22:40;;;;;;;12.20;9.50;;;;;;;8.67;81.86;99821.09;10172830;29;20047;-82
2024/03/12 03:27:44;;;;;;;17.30;11.75;;;;;;;8.32;86.57;99838.16;10173563;29;20052;-81
2024/03/12 03:32:48;;;;;;;18.42;9.88;;;;;;;8.11;87.45;99833.53;10171977;29;20047;-81
2024/03/12 03:37:51;;;;;;;31.27;18.35;;;;;;;7.75;92.05;99834.59;10174170;29;20131;-81
2024/03/12 03:42:56;;;;;;;38.72;18.67;;;;;;;8.05;90.34;99835.84;10171692;29;20055;-81
2024/03/12 03:47:59;;;;;;;36.40;21.55;;;;;;;7.98;91.70;99832.81;10171351;29;20556;-82
2024/03/12 03:53:02;;;;;;;38.63;19.83;;;;;;;7.91;91.39;99834.28;10171221;29;20047;-81
2024/03/12 03:58:07;;;;;;;41.30;22.70;;;;;;;7.87;93.05;99846.16;10173839;29;20095;-80
2024/03/12 04:03:10;;;;;;;51.65;23.90;;;;;;;7.74;94.91;99848.97;10169487;29;20773;-81
2024/03/12 04:08:14;;;;;;;70.47;31.90;;;;;;;7.33;99.77;99862.84;10171044;29;20054;-80
2024/03/12 04:13:18;;;;;;;60.10;30.00;;;;;;;7.87;94.60;99855.06;10155239;29;20062;-80
2024/03/12 04:18:22;;;;;;;62.22;31.85;;;;;;;8.08;91.81;99868.56;10208737;29;20036;-80
2024/03/12 04:23:25;;;;;;;57.85;30.48;;;;;;;8.18;90.34;99869.53;10194415;29;20082;-80
2024/03/12 04:28:30;;;;;;;51.67;29.40;;;;;;;8.26;89.40;99881.47;10177318;29;20043;-82
2024/03/12 04:33:33;;;;;;;50.00;26.05;;;;;;;7.90;91.30;99892.25;10186632;29;20055;-80
2024/03/12 04:38:36;;;;;;;49.13;27.67;;;;;;;8.04;90.25;99885.84;10175202;29;20051;-82
2024/03/12 04:43:41;;;;;;;52.47;27.20;;;;;;;8.09;90.08;99889.00;10173616;29;20081;-81
2024/03/12 04:48:46;;;;;;;52.00;28.27;;;;;;;8.02;90.82;99890.44;10174608;29;20680;-81
2024/03/12 04:53:49;;;;;;;48.80;27.65;;;;;;;7.97;91.41;99906.00;10173847;29;20470;-81
2024/03/12 04:58:54;;;;;;;47.15;26.33;;;;;;;8.21;89.96;99913.09;10167664;29;20051;-80
2024/03/12 05:03:56;;;;;;;50.78;26.90;;;;;;;8.23;89.31;99914.66;10171499;29;20048;-80
2024/03/12 05:09:06;;;;;;;46.05;26.77;;;;;;;8.26;89.25;99927.81;10170963;29;20048;-80
2024/03/12 05:14:10;;;;;;;48.78;26.70;;;;;;;8.30;89.04;99933.75;10164379;29;20048;-81
2024/03/12 05:19:13;;;;;;;47.33;26.38;;;;;;;8.24;89.41;99932.41;10169862;29;20459;-80
2024/03/12 05:24:18;;;;;;;43.80;22.17;;;;;;;7.83;92.91;99947.16;10169083;29;20620;-80
2024/03/12 05:29:33;;;;;;;57.65;28.40;;;;;;;7.60;97.67;99962.31;10179124;28;20055;-81
2024/03/12 05:34:39;;;;;;;52.92;27.60;;;;;;;7.76;97.93;99948.59;10164561;29;20079;-80
2024/03/12 05:40:00;;;;;;;49.10;24.25;;;;;;;7.54;100.00;99961.88;10171550;29;20082;-81
2024/03/12 05:50:22;;;;;;;56.10;26.40;;;;;;;7.38;100.00;99975.56;10133568;29;20062;-80
2024/03/12 05:55:25;;;;;;;53.10;26.00;;;;;;;7.44;100.00;99975.09;10173599;29;20051;-82
2024/03/12 06:00:30;;;;;;;56.10;28.92;;;;;;;7.57;100.00;99986.59;10170719;29;20060;-81
2024/03/12 06:05:33;;;;;;;63.35;30.88;;;;;;;7.60;100.00;99989.03;10173748;29;20139;-80
2024/03/12 06:10:36;;;;;;;63.97;31.33;;;;;;;7.49;100.00;99997.00;10177175;29;20166;-81
2024/03/12 06:15:40;;;;;;;61.78;30.70;;;;;;;7.44;100.00;100000.00;10176984;29;21150;-80
2024/03/12 06:20:45;;;;;;;59.35;30.33;;;;;;;7.47;100.00;100009.63;10180663;29;20179;-82
2024/03/12 06:25:48;;;;;;;60.45;27.23;;;;;;;7.42;100.00;100015.28;10178350;29;20054;-82
2024/03/12 06:30:53;;;;;;;56.90;27.15;;;;;;;7.46;100.00;100015.91;10170905;29;20047;-80
2024/03/12 06:35:56;;;;;;;60.70;29.80;;;;;;;7.37;100.00;100027.28;10173945;29;20298;-82
2024/03/12 06:40:59;;;;;;;64.10;28.60;;;;;;;7.28;100.00;100029.66;10177449;29;20411;-80
2024/03/12 06:46:04;;;;;;;62.92;30.63;;;;;;;7.36;100.00;100028.25;10176922;29;20051;-81
2024/03/12 06:51:07;;;;;;;55.00;28.55;;;;;;;7.41;100.00;100039.47;10173915;29;20088;-82
2024/03/12 06:56:11;;;;;;;58.72;28.73;;;;;;;7.15;100.00;100041.34;10176174;29;20601;-80
2024/03/12 07:01:16;;;;;;;61.03;28.42;;;;;;;7.19;100.00;100046.38;10175827;29;20051;-82
2024/03/12 07:06:19;;;;;;;62.50;29.70;;;;;;;7.23;100.00;100061.19;10174348;29;20499;-81
2024/03/12 07:11:25;;;;;;;58.55;26.50;;;;;;;7.05;100.00;100071.41;10176258;29;20693;-82
2024/03/12 07:16:30;;;;;;;59.97;26.40;;;;;;;6.95;100.00;100073.00;10189146;28;20079;-80
2024/03/12 07:21:34;;;;;;;61.67;28.75;;;;;;;6.60;100.00;100078.13;10175391;29;20436;-82
2024/03/12 07:26:37;;;;;;;69.10;30.25;;;;;;;7.13;100.00;100072.66;10168940;29;20109;-81
2024/03/12 07:31:42;;;;;;;71.60;33.60;;;;;;;7.35;100.00;100077.31;10176098;29;20966;-81
2024/03/12 07:36:45;;;;;;;72.15;33.17;;;;;;;7.55;100.00;100084.75;10172007;29;20043;-80
2024/03/12 07:41:48;;;;;;;75.22;33.67;;;;;;;7.04;100.00;100092.88;10174712;29;20059;-80
2024/03/12 07:46:54;;;;;;;75.90;35.42;;;;;;;7.62;100.00;100087.81;10170046;29;20069;-81
2024/03/12 07:51:58;;;;;;;76.95;32.60;;;;;;;7.33;100.00;100088.13;10160889;29;20051;-81
2024/03/12 07:57:02;;;;;;;72.82;32.88;;;;;;;7.44;100.00;100093.53;10165773;29;20085;-81
2024/03/12 08:02:11;;;;;;;73.50;35.38;;;;;;;7.14;100.00;100101.09;10178233;29;20471;-82
2024/03/12 08:07:15;;;;;;;73.10;34.38;;;;;;;7.63;100.00;100097.56;10170044;28;20216;-82
2024/03/12 08:12:19;;;;;;;67.00;31.90;;;;;;;7.45;100.00;100108.59;10167971;29;20062;-81
2024/03/12 08:17:25;;;;;;;63.78;32.63;;;;;;;8.16;100.00;100109.59;10166033;28;20183;-82
2024/03/12 08:22:29;;;;;;;59.42;28.58;;;;;;;8.02;99.76;100114.28;10166228;29;20372;-79
2024/03/12 08:27:32;;;;;;;56.28;28.63;;;;;;;8.03;100.00;100118.66;10179608;29;20077;-80
2024/03/12 08:32:37;;;;;;;56.05;27.85;;;;;;;8.38;95.58;100126.72;10172382;29;20688;-82
2024/03/12 08:37:40;;;;;;;39.20;18.05;;;;;;;8.12;95.88;100117.97;10166704;28;20048;-83
2024/03/12 08:42:43;;;;;;;47.10;24.92;;;;;;;8.93;92.28;100130.50;10169826;28;20058;-84
2024/03/12 08:48:00;;;;;;;40.05;19.52;;;;;;;8.95;89.13;100135.75;10170448;28;20055;-82
2024/03/12 08:53:04;;;;;;;43.05;24.83;;;;;;;8.67;92.72;100134.38;10163751;29;20047;-82
2024/03/12 08:58:07;;;;;;;46.97;24.17;;;;;;;8.25;96.63;100140.16;10167181;29;20051;-81
2024/03/12 09:03:12;;;;;;;49.80;26.95;;;;;;;8.09;96.34;100148.50;10165038;29;20107;-82
2024/03/12 09:08:17;;;;;;;48.65;25.27;;;;;;;7.85;100.00;100151.16;10166284;29;20175;-82
2024/03/12 09:13:20;;;;;;;44.20;23.08;;;;;;;8.09;94.55;100152.97;10171368;29;20138;-83
2024/03/12 09:18:24;;;;;;;49.75;25.00;;;;;;;7.94;97.53;100166.50;10177195;29;20504;-81
2024/03/12 09:23:30;;;;;;;38.17;18.83;;;;;;;7.57;98.96;100160.34;10176994;29;20052;-81
2024/03/12 09:28:36;;;;;;;48.35;25.23;;;;;;;7.69;99.88;100166.59;10175369;29;20062;-83
2024/03/12 09:33:40;;;;;;;50.70;23.65;;;;;;;7.69;99.84;100172.81;10184963;29;20598;-84
2024/03/12 09:38:46;;;;;;;50.03;25.20;;;;;;;7.59;100.00;100169.06;10176631;29;20058;-82
2024/03/12 09:43:51;;;;;;;38.45;19.73;;;;;;;7.04;100.00;100175.66;10178194;29;20126;-83
2024/03/12 09:48:55;;;;;;;36.17;17.65;;;;;;;6.74;100.00;100174.09;10194513;29;20043;-83
2024/03/12 09:53:58;;;;;;;30.48;17.08;;;;;;;6.95;100.00;100187.00;10188579;29;20166;-83
2024/03/12 09:59:02;;;;;;;34.35;18.30;;;;;;;7.30;100.00;100181.00;10224546;29;20095;-82
2024/03/12 10:04:07;;;;;;;32.10;13.68;;;;;;;7.08;100.00;100192.34;10223785;29;20195;-82
2024/03/12 10:09:17;;;;;;;27.65;14.40;;;;;;;6.87;100.00;100195.53;10181369;29;20055;-82
2024/03/12 10:14:22;;;;;;;27.98;17.73;;;;;;;7.53;100.00;100204.28;10172836;29;20574;-82
2024/03/12 10:19:29;;;;;;;30.52;15.70;;;;;;;7.24;100.00;100206.31;10174500;29;20063;-82
2024/03/12 10:24:32;;;;;;;29.90;15.52;;;;;;;7.06;100.00;100208.47;10177887;29;20055;-82
2024/03/12 10:29:37;;;;;;;24.20;13.98;;;;;;;7.24;100.00;100209.88;10191823;29;20048;-81
2024/03/12 10:34:41;;;;;;;21.13;12.88;;;;;;;7.60;100.00;100218.06;10178297;29;20521;-81
2024/03/12 10:39:44;;;;;;;22.13;12.35;;;;;;;7.87;100.00;100212.53;10171458;29;20118;-82
2024/03/12 10:44:48;;;;;;;21.13;10.45;;;;;;;8.07;96.58;100221.81;10174633;29;20068;-81
2024/03/12 10:49:56;;;;;;;16.08;9.80;;;;;;;8.02;93.75;100207.91;10173156;29;20047;-82
2024/03/12 10:54:59;;;;;;;18.13;10.82;;;;;;;7.67;97.00;100222.84;10180821;28;20054;-82
2024/03/12 11:00:15;;;;;;;18.85;11.63;;;;;;;7.67;98.24;100217.50;10167130;29;20494;-82
2024/03/12 11:05:21;;;;;;;20.60;12.18;;;;;;;7.67;97.01;100230.03;10178787;29;20050;-82
2024/03/12 11:10:26;;;;;;;17.90;10.77;;;;;;;7.98;93.66;100234.03;10170803;29;20054;-83
2024/03/12 11:15:31;;;;;;;23.42;11.77;;;;;;;7.19;97.65;100235.19;10178608;29;20059;-83
2024/03/12 11:20:39;;;;;;;21.92;12.70;;;;;;;7.88;94.31;100238.34;10171721;29;20059;-83
2024/03/12 11:25:45;;;;;;;23.55;12.75;;;;;;;7.25;95.57;100248.13;10181554;28;20134;-82
2024/03/12 11:31:01;;;;;;;25.20;13.32;;;;;;;7.46;93.92;100243.06;10170267;29;21336;-82
2024/03/12 11:36:09;;;;;;;21.90;13.63;;;;;;;8.02;91.35;100248.88;10179958;29;20054;-83
2024/03/12 11:41:12;;;;;;;26.48;13.32;;;;;;;8.18;91.12;100248.63;10178563;29;21161;-83
2024/03/12 11:46:20;;;;;;;26.67;13.15;;;;;;;7.85;92.37;100246.59;10179495;29;20132;-82
2024/03/12 11:51:54;;;;;;;24.25;13.57;;;;;;;8.24;92.00;100242.81;10177194;29;20047;-82
2024/03/12 11:56:58;;;;;;;20.15;11.60;;;;;;;7.78;95.10;100250.66;10165832;29;20056;-82
2024/03/12 12:02:01;;;;;;;18.45;9.65;;;;;;;7.67;93.77;100260.28;10174167;29;20642;-83
2024/03/12 12:07:08;;;;;;;22.35;12.13;;;;;;;8.00;92.51;100260.66;10173057;29;20847;-83
2024/03/12 12:12:14;;;;;;;22.67;11.60;;;;;;;7.45;96.40;100270.78;10170702;29;20264;-83
2024/03/12 12:17:22;;;;;;;24.48;13.27;;;;;;;6.87;100.00;100272.06;10172165;29;20149;-83
2024/03/12 12:22:28;;;;;;;28.70;15.27;;;;;;;7.12;97.58;100264.13;10176837;29;20574;-83
2024/03/12 12:27:32;;;;;;;27.25;14.15;;;;;;;7.10;96.89;100279.41;10194164;29;20051;-83
2024/03/12 12:32:37;;;;;;;23.92;13.93;;;;;;;7.33;91.89;100267.16;10161356;29;21115;-83
2024/03/12 12:37:45;;;;;;;28.83;14.57;;;;;;;7.98;89.60;100279.50;10172035;29;20095;-83
2024/03/12 12:42:51;;;;;;;25.73;13.95;;;;;;;7.44;91.43;100282.44;10167065;29;20044;-82
2024/03/12 12:47:54;;;;;;;28.10;14.75;;;;;;;7.46;93.94;100280.50;10172902;29;20058;-83
2024/03/12 12:53:00;;;;;;;26.85;13.32;;;;;;;7.72;93.68;100282.19;10168974;29;21178;-83
2024/03/12 12:58:06;;;;;;;18.52;10.73;;;;;;;7.64;94.59;100287.22;10158061;29;20051;-83
2024/03/12 13:03:16;;;;;;;13.80;8.57;;;;;;;7.63;95.18;100290.88;10175012;29;20063;-84
2024/03/12 13:08:23;;;;;;;13.52;6.10;;;;;;;7.35;95.66;100299.09;10176516;29;20157;-83
2024/03/12 13:13:27;;;;;;;12.25;7.30;;;;;;;7.47;96.54;100295.59;10166931;29;20075;-83
2024/03/12 13:18:30;;;;;;;16.38;9.50;;;;;;;7.27;99.05;100305.84;10166439;28;20040;-81
2024/03/12 13:23:36;;;;;;;13.77;8.15;;;;;;;6.90;100.00;100307.47;10173782;28;20911;-82
2024/03/12 13:28:39;;;;;;;22.98;11.82;;;;;;;6.66;100.00;100306.38;10170771;28;20044;-82
2024/03/12 13:33:43;;;;;;;20.83;11.25;;;;;;;6.83;100.00;100311.47;10170745;29;20082;-80
2024/03/12 13:38:49;;;;;;;22.92;12.23;;;;;;;7.18;100.00;100305.59;10167201;29;20047;-82
2024/03/12 13:43:54;;;;;;;23.42;12.20;;;;;;;6.96;100.00;100308.88;10171519;28;20051;-82
2024/03/12 13:49:11;;;;;;;21.65;12.38;;;;;;;6.87;100.00;100320.13;10169415;29;20056;-80
2024/03/12 13:54:17;;;;;;;21.17;11.77;;;;;;;7.22;100.00;100320.47;10172648;29;20166;-82
2024/03/12 13:59:20;;;;;;;23.83;12.05;;;;;;;7.28;100.00;100323.56;10172705;29;20242;-82
2024/03/12 14:04:26;;;;;;;28.10;12.65;;;;;;;7.50;100.00;100322.09;10174227;29;20666;-81
2024/03/12 14:09:35;;;;;;;33.05;14.50;;;;;;;7.45;100.00;100321.56;10173577;29;20058;-82
2024/03/12 14:14:38;;;;;;;26.58;12.50;;;;;;;6.51;100.00;100330.47;10183196;29;20131;-83
2024/03/12 14:19:42;;;;;;;31.27;15.93;;;;;;;7.34;100.00;100334.81;10172716;29;20055;-84
2024/03/12 14:24:46;;;;;;;28.92;14.00;;;;;;;7.63;96.42;100330.13;10185543;29;20047;-83
2024/03/12 14:29:49;;;;;;;26.23;14.40;;;;;;;7.77;95.75;100324.66;10178222;29;20677;-84
2024/03/12 14:34:52;;;;;;;26.60;12.98;;;;;;;7.27;96.01;100331.72;10175060;29;20059;-83
2024/03/12 14:39:57;;;;;;;23.08;12.48;;;;;;;7.56;92.75;100331.50;10183048;29;20040;-83
2024/03/12 14:45:00;;;;;;;22.15;12.40;;;;;;;7.58;90.92;100330.44;10169807;29;20059;-82
2024/03/12 14:50:04;;;;;;;20.63;12.15;;;;;;;7.44;92.37;100330.53;10176362;29;20048;-83
2024/03/12 14:55:09;;;;;;;23.45;10.90;;;;;;;7.34;92.49;100335.66;10170375;29;20111;-83
2024/03/12 15:00:16;;;;;;;21.77;11.45;;;;;;;6.91;96.25;100322.53;10176085;29;20056;-82
2024/03/12 15:05:20;;;;;;;28.15;13.80;;;;;;;7.12;93.25;100333.59;10176835;29;20741;-83
2024/03/12 15:10:24;;;;;;;27.45;12.75;;;;;;;7.48;91.32;100337.38;10178563;29;20175;-83
2024/03/12 15:15:27;;;;;;;30.08;15.23;;;;;;;7.59;90.24;100342.84;10173633;29;20174;-83
2024/03/12 15:20:31;;;;;;;36.55;19.23;;;;;;;7.28;92.22;100344.94;10174742;29;20052;-82
2024/03/12 15:25:35;;;;;;;34.28;19.10;;;;;;;7.77;88.65;100332.69;10177968;29;20047;-84
2024/03/12 15:30:38;;;;;;;36.30;19.40;;;;;;;8.06;87.09;100341.31;10178691;29;21167;-84
2024/03/12 15:35:45;;;;;;;39.83;20.08;;;;;;;8.14;85.44;100335.41;10215339;29;20039;-83
2024/03/12 15:40:50;;;;;;;37.85;19.48;;;;;;;8.21;85.33;100331.34;10211947;29;20075;-83
2024/03/12 15:45:54;;;;;;;37.17;20.55;;;;;;;8.29;84.17;100336.16;10177823;29;20814;-82
2024/03/12 15:50:58;;;;;;;40.55;18.58;;;;;;;8.06;84.40;100335.13;10172848;29;20126;-82
2024/03/12 15:56:02;;;;;;;42.17;21.80;;;;;;;7.95;84.89;100338.53;10175486;29;20092;-83
2024/03/12 16:01:07;;;;;;;41.55;21.73;;;;;;;8.09;84.09;100337.56;10176910;29;20043;-84
2024/03/12 16:06:11;;;;;;;40.30;22.02;;;;;;;8.13;82.73;100337.25;10175321;29;20052;-84
2024/03/12 16:11:16;;;;;;;37.08;21.25;;;;;;;7.67;84.61;100340.47;10169928;29;20055;-83
2024/03/12 16:16:19;;;;;;;39.80;20.42;;;;;;;7.89;82.83;100344.34;10174457;29;20051;-83
2024/03/12 16:21:22;;;;;;;39.90;23.02;;;;;;;7.93;82.64;100338.66;10174152;29;20560;-83
2024/03/12 16:26:27;;;;;;;38.42;20.45;;;;;;;7.95;81.36;100341.22;10194104;29;20057;-83
2024/03/12 16:31:30;;;;;;;39.72;21.77;;;;;;;7.84;81.04;100335.78;10176143;29;20383;-83
2024/03/12 16:36:33;;;;;;;40.28;21.65;;;;;;;8.04;80.38;100340.59;10176890;29;20048;-83
2024/03/12 16:41:39;;;;;;;40.83;22.60;;;;;;;8.05;79.90;100330.75;10173531;29;20063;-82
2024/03/12 16:46:43;;;;;;;46.40;22.73;;;;;;;8.09;78.82;100325.06;10181592;29;20764;-84
2024/03/12 16:51:48;;;;;;;43.30;22.10;;;;;;;8.14;78.08;100336.28;10173789;29;20078;-85
2024/03/12 16:56:55;;;;;;;44.78;22.05;;;;;;;8.14;79.23;100338.94;10177728;29;20052;-84
2024/03/12 17:02:00;;;;;;;44.22;23.00;;;;;;;8.05;80.15;100342.28;10172224;28;20071;-83
2024/03/12 17:07:07;;;;;;;43.60;23.90;;;;;;;7.92;80.66;100341.44;10171147;29;20043;-84
2024/03/12 17:12:14;;;;;;;43.72;23.85;;;;;;;7.90;80.58;100343.38;10170875;29;20055;-84
2024/03/12 17:17:23;;;;;;;47.45;24.92;;;;;;;7.93;80.42;100343.16;10171749;29;20511;-84
2024/03/12 17:22:27;;;;;;;70.35;35.00;;;;;;;7.87;80.36;100347.13;10171195;29;20052;-84
2024/03/12 17:27:31;;;;;;;91.22;45.17;;;;;;;7.92;80.44;100333.41;10170136;29;20051;-84
2024/03/12 17:32:35;;;;;;;104.03;48.85;;;;;;;7.80;80.40;100343.16;10171342;29;20554;-82
2024/03/12 17:37:42;;;;;;;126.28;50.63;;;;;;;7.47;82.41;100351.72;10177172;28;21132;-83
2024/03/12 17:42:47;;;;;;;66.53;31.50;;;;;;;7.37;83.26;100361.31;10177814;29;20063;-82
2024/03/12 17:47:53;;;;;;;80.97;38.88;;;;;;;7.33;84.21;100352.66;10177557;29;20057;-84
2024/03/12 17:53:00;;;;;;;59.50;29.33;;;;;;;7.33;84.57;100359.81;10180030;29;20062;-84
2024/03/12 17:58:05;;;;;;;56.78;28.48;;;;;;;7.36;84.60;100359.63;10180514;29;20051;-83
2024/03/12 18:03:10;;;;;;;52.78;26.75;;;;;;;7.27;84.43;100348.59;10175642;29;20293;-85
2024/03/12 18:08:22;;;;;;;49.25;26.23;;;;;;;7.16;84.88;100353.81;10180310;29;20048;-83
2024/03/12 18:13:27;;;;;;;47.92;26.70;;;;;;;7.06;85.22;100356.22;10182542;29;20742;-83
2024/03/12 18:18:30;;;;;;;51.58;27.30;;;;;;;6.99;85.96;100362.94;10175202;28;20055;-84
2024/03/12 18:23:35;;;;;;;51.75;27.23;;;;;;;7.05;86.46;100361.69;10184669;29;20055;-85
2024/03/12 18:28:39;;;;;;;49.30;26.60;;;;;;;7.16;86.60;100360.94;10173420;29;20047;-82
2024/03/12 18:33:42;;;;;;;49.22;27.42;;;;;;;7.22;86.40;100353.38;10176131;29;20051;-84
2024/03/12 18:38:45;;;;;;;41.92;24.42;;;;;;;7.27;86.32;100364.63;10173257;29;20510;-83
2024/03/12 18:43:50;;;;;;;49.42;26.55;;;;;;;7.23;86.13;100363.09;10178266;29;21537;-84
2024/03/12 18:48:53;;;;;;;47.78;26.77;;;;;;;7.12;86.35;100346.94;10172844;29;20059;-84
2024/03/12 18:53:58;;;;;;;54.92;26.60;;;;;;;6.99;86.75;100351.38;10168821;29;20812;-85
2024/03/12 18:59:03;;;;;;;75.60;38.05;;;;;;;6.87;87.80;100341.50;10176748;29;20048;-84
2024/03/12 19:04:07;;;;;;;94.30;44.72;;;;;;;6.75;88.16;100352.03;10173548;29;20058;-85
2024/03/12 19:09:15;;;;;;;76.78;39.45;;;;;;;6.66;88.84;100360.63;10177287;29;20055;-84
2024/03/12 19:14:21;;;;;;;100.50;51.30;;;;;;;6.55;89.42;100361.31;10194508;28;20063;-84
2024/03/12 19:19:28;;;;;;;105.10;48.67;;;;;;;6.47;89.94;100355.63;10178377;29;20510;-83
2024/03/12 19:24:31;;;;;;;85.07;43.50;;;;;;;6.36;90.69;100359.00;10168205;29;20048;-83
2024/03/12 19:29:36;;;;;;;53.45;28.42;;;;;;;6.29;90.88;100357.66;10171890;29;20408;-84
2024/03/12 19:34:39;;;;;;;52.38;26.75;;;;;;;6.26;91.72;100362.34;10174611;29;20048;-84
2024/03/12 19:39:43;;;;;;;50.63;25.02;;;;;;;6.18;92.05;100357.50;10174253;29;20055;-85
2024/03/12 19:44:50;;;;;;;56.90;29.52;;;;;;;6.18;91.94;100363.69;10178008;28;20635;-83
2024/03/12 19:49:53;;;;;;;50.28;26.67;;;;;;;6.11;91.73;100361.47;10181809;29;20047;-83
2024/03/12 19:54:56;;;;;;;56.45;29.52;;;;;;;6.04;92.02;100362.84;10178895;29;20130;-83
2024/03/12 20:00:12;;;;;;;59.05;27.67;;;;;;;6.01;92.39;100360.38;10185603;29;20056;-83
2024/03/12 20:05:16;;;;;;;52.58;25.40;;;;;;;6.03;92.55;100366.44;10178737;29;20099;-83
2024/03/12 20:10:19;;;;;;;58.17;28.00;;;;;;;5.95;92.24;100359.78;10177948;29;20090;-84
2024/03/12 20:15:24;;;;;;;58.03;28.25;;;;;;;5.91;92.62;100360.06;10179091;28;20062;-84
2024/03/12 20:20:27;;;;;;;54.22;26.95;;;;;;;5.80;93.84;100350.06;10174255;28;20052;-83
2024/03/12 20:25:31;;;;;;;57.40;26.80;;;;;;;5.78;94.39;100356.44;10181469;29;20040;-81
2024/03/12 20:30:37;;;;;;;60.90;28.33;;;;;;;5.74;94.41;100350.47;10183661;29;20117;-83
2024/03/12 20:35:42;;;;;;;52.50;27.23;;;;;;;5.69;94.26;100344.53;10177682;29;20047;-82
2024/03/12 20:40:46;;;;;;;58.55;26.50;;;;;;;5.52;95.31;100350.06;10167606;29;20427;-82
2024/03/12 20:45:52;;;;;;;60.30;29.08;;;;;;;5.52;95.09;100353.56;10188346;28;20118;-83
2024/03/12 20:50:55;;;;;;;64.55;27.77;;;;;;;5.49;95.06;100351.09;10180940;28;20054;-83
2024/03/12 20:55:58;;;;;;;62.72;29.58;;;;;;;5.54;94.87;100345.47;10175053;28;20051;-82
2024/03/12 21:01:03;;;;;;;55.70;28.33;;;;;;;5.56;94.10;100341.75;10180587;29;20134;-84
2024/03/12 21:06:08;;;;;;;58.65;28.17;;;;;;;5.57;93.81;100340.81;10171841;29;20055;-84
2024/03/12 21:11:37;;;;;;;61.08;29.95;;;;;;;5.57;93.71;100334.63;10180373;29;20051;-83
2024/03/12 21:16:41;;;;;;;62.72;30.60;;;;;;;5.54;93.16;100335.69;10195995;29;20140;-82
2024/03/12 21:21:48;;;;;;;66.95;31.80;;;;;;;5.59;92.56;100330.06;10180311;29;20119;-82
2024/03/12 21:26:51;;;;;;;65.88;30.55;;;;;;;5.78;91.87;100327.13;10173826;29;20048;-84
2024/03/12 21:31:57;;;;;;;62.25;29.55;;;;;;;5.83;90.91;100325.03;10177677;29;20050;-83
2024/03/12 21:37:02;;;;;;;66.38;31.30;;;;;;;5.78;90.81;100330.63;10175081;29;20526;-84
2024/03/12 21:42:06;;;;;;;70.05;31.55;;;;;;;5.76;90.86;100324.56;10168042;29;20047;-83
2024/03/12 21:47:11;;;;;;;68.55;31.85;;;;;;;5.80;90.47;100330.56;10174689;29;20047;-82
2024/03/12 21:52:16;;;;;;;62.47;31.95;;;;;;;5.80;89.87;100323.41;10176325;29;20056;-81
2024/03/12 21:57:21;;;;;;;67.28;29.88;;;;;;;5.65;89.74;100313.69;10175588;29;20052;-82
2024/03/12 22:02:26;;;;;;;66.28;33.92;;;;;;;5.65;89.74;100325.22;10175500;28;21649;-81
2024/03/12 22:07:31;;;;;;;65.13;32.40;;;;;;;5.57;89.86;100316.84;10174735;29;20676;-82
2024/03/12 22:12:35;;;;;;;62.35;29.10;;;;;;;5.53;89.55;100325.97;10185344;29;20055;-81
2024/03/12 22:17:39;;;;;;;60.95;30.13;;;;;;;5.37;90.15;100325.19;10176004;29;20051;-82
2024/03/12 22:22:43;;;;;;;62.47;29.42;;;;;;;5.32;90.01;100327.25;10175286;29;20050;-82
2024/03/12 22:27:47;;;;;;;65.72;32.88;;;;;;;5.32;90.42;100327.25;10180266;29;20677;-81
2024/03/12 22:32:52;;;;;;;68.13;32.75;;;;;;;5.36;90.16;100334.13;10173895;29;21402;-83
2024/03/12 22:37:56;;;;;;;65.57;29.73;;;;;;;5.28;89.73;100331.91;10177084;29;20059;-82
2024/03/12 22:42:59;;;;;;;65.43;31.27;;;;;;;5.18;89.77;100330.75;10173798;29;21688;-82
2024/03/12 22:48:05;;;;;;;71.82;32.22;;;;;;;5.10;90.15;100335.66;10177195;29;20047;-82
2024/03/12 22:53:09;;;;;;;63.78;30.60;;;;;;;5.05;90.59;100327.97;10174462;29;20051;-81
2024/03/12 22:58:14;;;;;;;64.68;31.13;;;;;;;5.01;90.67;100329.09;10176085;29;20047;-82
2024/03/12 23:03:20;;;;;;;66.85;30.65;;;;;;;4.90;90.58;100319.03;10172947;29;20174;-83
2024/03/12 23:08:28;;;;;;;67.60;32.90;;;;;;;4.79;91.17;100314.31;10169480;29;20051;-82
2024/03/12 23:13:33;;;;;;;65.95;30.52;;;;;;;4.76;91.55;100329.63;10172122;29;20106;-82
2024/03/12 23:18:39;;;;;;;66.53;31.10;;;;;;;4.78;91.73;100322.41;10175985;29;20052;-82